For water level readings from Victoria harbour, visit our Tides page.

DISCLAIMER: Although GVHA takes care to produce accurate readings from Ogden Point, the weather information on this site is raw data fed directly from sensors. It does not go through the same quality control processes used by professional weather services, and should not be relied on as a sole source of weather information for Victoria harbour.

In-depth weather values from Victoria Harbour can be found on the Environment Canada website.

Location: Ogden Point Breakwater

Current time: Jul 7, 2020 1:31 PM GMT | Jul 7, 2020 6:31 AM

Last Hour Last 3 Hours Last 6 Hours Last 12 Hours
Time Peak Wind Speed Avg Speed Avg Direction Avg Air Temp Avg Dew Point Avg Humidity
Jul 7, 2020 06:30 AM 16.8 knots 14.1 knots 209° True 11.4° C / 52.8° F 9° C / 48° F 85.7%
Jul 7, 2020 06:20 AM 19.3 knots 16 knots 209° True 11.7° C / 53.4° F 9.2° C / 48.4° F 84.5%
Jul 7, 2020 06:10 AM 20.8 knots 18.8 knots 218° True 11.9° C / 53.8° F 9.2° C / 48.4° F 83.9%
Jul 7, 2020 06:00 AM 24.3 knots 21.2 knots 228° True 12° C / 54° F 9.2° C / 48.4° F 83.2%
Jul 7, 2020 05:50 AM 21.4 knots 19.4 knots 229° True 12.1° C / 54.2° F 9.4° C / 48.8° F 83.5%
Jul 7, 2020 05:40 AM 21.5 knots 19.2 knots 237° True 12.4° C / 54.8° F 9.4° C / 48.8° F 81.7%
Jul 7, 2020 05:30 AM 20.3 knots 15.5 knots 241° True 12.5° C / 55° F 9.2° C / 48.4° F 80.8%
Jul 7, 2020 05:20 AM 17.9 knots 15 knots 242° True 12.5° C / 55° F 9.4° C / 48.8° F 81.4%
Jul 7, 2020 05:10 AM 18.6 knots 14.6 knots 249° True 12.5° C / 55° F 9.4° C / 48.8° F 81.4%
Jul 7, 2020 05:00 AM 16.1 knots 13.6 knots 250° True 12.6° C / 55.2° F 9.5° C / 49° F 81.1%
Jul 7, 2020 04:50 AM 16 knots 13.2 knots 245° True 12.7° C / 55.4° F 9.3° C / 48.6° F 79.9%
Jul 7, 2020 04:40 AM 11 knots 7.4 knots 229° True 12.8° C / 55.6° F 9.4° C / 48.8° F 79.8%
Jul 7, 2020 04:30 AM 11.7 knots 9.4 knots 235° True 12.8° C / 55.6° F 9.4° C / 48.8° F 79.5%
Jul 7, 2020 04:20 AM 11.2 knots 8.5 knots 232° True 12.8° C / 55.6° F 9.4° C / 48.8° F 79.9%
Jul 7, 2020 04:10 AM 11.4 knots 8.7 knots 230° True 12.7° C / 55.4° F 9.3° C / 48.6° F 79.6%
Jul 7, 2020 04:00 AM 12.9 knots 9.6 knots 238° True 12.7° C / 55.4° F 9.2° C / 48.4° F 79.3%
Jul 7, 2020 03:50 AM 13.6 knots 10.7 knots 240° True 12.6° C / 55.2° F 9.3° C / 48.6° F 80%
Jul 7, 2020 03:40 AM 14.5 knots 11.5 knots 234° True 12.7° C / 55.4° F 9.3° C / 48.6° F 79.9%
Jul 7, 2020 03:30 AM 16 knots 13 knots 242° True 12.9° C / 55.8° F 9.2° C / 48.4° F 78.3%
Jul 7, 2020 03:20 AM 16.6 knots 12.3 knots 245° True 12.9° C / 55.8° F 8.8° C / 47.6° F 76.1%
Jul 7, 2020 03:10 AM 14.4 knots 10.2 knots 231° True 12.8° C / 55.6° F 8.5° C / 47° F 75.3%
Jul 7, 2020 03:00 AM 11.5 knots 9.1 knots 218° True 12.9° C / 55.8° F 8.3° C / 46.6° F 73.6%
Jul 7, 2020 02:50 AM 11.1 knots 8.3 knots 214° True 13.3° C / 56.6° F 8.2° C / 46.4° F 71.5%
Jul 7, 2020 02:40 AM 13.4 knots 10.2 knots 222° True 13.6° C / 57.2° F 8° C / 46° F 69%
Jul 7, 2020 02:30 AM 12.9 knots 9.9 knots 233° True 13.5° C / 57° F 8.1° C / 46.2° F 69.5%
Jul 7, 2020 02:20 AM 13.6 knots 10.5 knots 233° True 13.5° C / 57° F 8.2° C / 46.4° F 69.9%
Jul 7, 2020 02:10 AM 15.3 knots 12.5 knots 231° True 13.5° C / 57° F 8.2° C / 46.4° F 69.8%
Jul 7, 2020 02:00 AM 15.6 knots 13 knots 232° True 13.7° C / 57.4° F 8.1° C / 46.2° F 68.8%
Jul 7, 2020 01:50 AM 15.7 knots 13.6 knots 230° True 13.9° C / 57.8° F 7.8° C / 45.6° F 66.6%
Jul 7, 2020 01:40 AM 12.5 knots 10.5 knots 231° True 13.9° C / 57.8° F 7.6° C / 45.2° F 65.8%
Jul 7, 2020 01:30 AM 12.3 knots 10.5 knots 229° True 13.8° C / 57.6° F 7.7° C / 45.4° F 66.4%
Jul 7, 2020 01:20 AM 12.9 knots 10.6 knots 233° True 13.9° C / 57.8° F 7.6° C / 45.2° F 66%
Jul 7, 2020 01:10 AM 9.5 knots 8 knots 238° True 13.9° C / 57.8° F 7.6° C / 45.2° F 65.5%
Jul 7, 2020 01:00 AM 14 knots 10.2 knots 236° True 14.1° C / 58.2° F 7.5° C / 45° F 64.7%
Jul 7, 2020 12:50 AM 13.6 knots 10.8 knots 229° True 14.3° C / 58.6° F 7.3° C / 44.6° F 62.7%
Jul 7, 2020 12:40 AM 14.4 knots 11 knots 230° True 14.3° C / 58.6° F 7.3° C / 44.6° F 62.7%
Jul 7, 2020 12:30 AM 12.3 knots 9.3 knots 236° True 14.5° C / 59° F 7.3° C / 44.6° F 62%
Jul 7, 2020 12:20 AM 14.4 knots 12.2 knots 245° True 14.7° C / 59.4° F 7.2° C / 44.4° F 60.9%
Jul 7, 2020 12:10 AM 14.7 knots 12.7 knots 251° True 14.7° C / 59.4° F 7.2° C / 44.4° F 60.6%
Jul 7, 2020 12:00 AM 17 knots 13.6 knots 248° True 14.8° C / 59.6° F 7.2° C / 44.4° F 60.3%
Jul 6, 2020 11:50 PM 21.2 knots 16.8 knots 250° True 14.8° C / 59.6° F 7.3° C / 44.6° F 60.9%
Jul 6, 2020 11:40 PM 20.6 knots 16.7 knots 249° True 14.9° C / 59.8° F 7.4° C / 44.8° F 60.5%
Jul 6, 2020 11:30 PM 22.4 knots 16.8 knots 249° True 14.9° C / 59.8° F 7.4° C / 44.8° F 60.6%
Jul 6, 2020 11:20 PM 19.2 knots 15.1 knots 249° True 14.9° C / 59.8° F 7.5° C / 45° F 61.1%
Jul 6, 2020 11:10 PM 16.2 knots 11.8 knots 243° True 14.9° C / 59.8° F 7.4° C / 44.8° F 60.9%
Jul 6, 2020 11:00 PM 13.7 knots 10.8 knots 241° True 15° C / 60° F 7.4° C / 44.8° F 60.3%
Jul 6, 2020 10:50 PM 14.6 knots 11.6 knots 250° True 15.1° C / 60.2° F 7.4° C / 44.8° F 59.7%
Jul 6, 2020 10:40 PM 15.4 knots 11.3 knots 247° True 15.2° C / 60.4° F 7.3° C / 44.6° F 59.4%
Jul 6, 2020 10:30 PM 12.8 knots 9.1 knots 240° True 15° C / 60° F 7.6° C / 45.2° F 61.4%
Jul 6, 2020 10:20 PM 16.4 knots 10 knots 246° True 15° C / 60° F 7.7° C / 45.4° F 61.7%
Jul 6, 2020 10:10 PM 12.6 knots 9.5 knots 242° True 15° C / 60° F 7.8° C / 45.6° F 61.8%
Jul 6, 2020 10:00 PM 11.3 knots 9.5 knots 237° True 15.1° C / 60.2° F 7.8° C / 45.6° F 61.8%
Jul 6, 2020 09:50 PM 12.2 knots 9 knots 242° True 15.3° C / 60.6° F 7.8° C / 45.6° F 61%
Jul 6, 2020 09:40 PM 12 knots 7.9 knots 239° True 15.4° C / 60.8° F 7.8° C / 45.6° F 60.6%
Jul 6, 2020 09:30 PM 12.1 knots 8 knots 233° True 15.3° C / 60.6° F 8° C / 46° F 61.6%
Jul 6, 2020 09:20 PM 12 knots 9.8 knots 236° True 15.6° C / 61.2° F 7.9° C / 45.8° F 60.3%
Jul 6, 2020 09:10 PM 14.6 knots 11.3 knots 248° True 15.7° C / 61.4° F 8° C / 46° F 60.4%
Jul 6, 2020 09:00 PM 16.7 knots 11.9 knots 249° True 15.7° C / 61.4° F 8.2° C / 46.4° F 60.9%
Jul 6, 2020 08:50 PM 20 knots 16.4 knots 250° True 15.9° C / 61.8° F 8.2° C / 46.4° F 60%
Jul 6, 2020 08:40 PM 21.1 knots 14.4 knots 248° True 15.8° C / 61.6° F 8.4° C / 46.8° F 61.4%
Jul 6, 2020 08:30 PM 19.2 knots 13.1 knots 240° True 15.7° C / 61.4° F 8.5° C / 47° F 62.1%
Jul 6, 2020 08:20 PM 17.4 knots 13.5 knots 238° True 15.8° C / 61.6° F 8.5° C / 47° F 61.5%
Jul 6, 2020 08:10 PM 18.3 knots 14.2 knots 237° True 15.9° C / 61.8° F 8.5° C / 47° F 61.4%
Jul 6, 2020 08:00 PM 20.6 knots 16.3 knots 236° True 16.1° C / 62.2° F 8.6° C / 47.2° F 61.1%
Jul 6, 2020 07:50 PM 20.9 knots 17 knots 234° True 16.1° C / 62.2° F 8.5° C / 47° F 60.8%
Jul 6, 2020 07:40 PM 20.3 knots 15 knots 232° True 15.9° C / 61.8° F 8.5° C / 47° F 61.6%
Jul 6, 2020 07:30 PM 17.5 knots 14.5 knots 229° True 16° C / 62° F 8.5° C / 47° F 60.9%
Jul 6, 2020 07:20 PM 20.7 knots 15.3 knots 233° True 16° C / 62° F 8.5° C / 47° F 61.3%
Jul 6, 2020 07:10 PM 21.5 knots 17.7 knots 233° True 16.1° C / 62.2° F 8.5° C / 47° F 60.5%
Jul 6, 2020 07:00 PM 22.1 knots 16.6 knots 231° True 15.8° C / 61.6° F 8.5° C / 47° F 61.5%
Jul 6, 2020 06:50 PM 18.9 knots 15.6 knots 227° True 15.9° C / 61.8° F 8.6° C / 47.2° F 61.8%
Jul 6, 2020 06:40 PM 18.3 knots 15.1 knots 227° True 15.8° C / 61.6° F 8.6° C / 47.2° F 62.4%